Flight Track Log - Related Links

Times and Time Zones

All times are in EDT time to prevent confusion due to time zone crossing. See the EGF3949 flight status page for this flight to view local times or setup timezone preferences in your user account.

Time Position Orientation Groundspeed Altitude Reporting Facility
EDT Latitude Longitude Course Direction KTS MPH feet Rate Location/Type
Tue 10:26:05 AM 42.0167 -87.9167 77° East 212 244 2,900  Level Chicago TRACON
Tue 10:27:00 AM 42.0167 -87.6331 71° East  Level FlightAware Approximate
Tue 10:27:05 AM 42.0667 -87.8667 37° Northeast 229 264 4,800  Level Chicago TRACON
Tue 10:28:00 AM 42.0382 -87.4964 83° East  Level FlightAware Approximate
Tue 10:28:11 AM 42.1000 -87.7833 62° Northeast 284 327 7,600  Level Chicago TRACON
Tue 10:29:00 AM 42.0515 -87.3567 78° East  Level FlightAware Approximate
Tue 10:29:23 AM 42.1081 -87.6458 85° East 299 344 9,900  Level Chicago Center
Tue 10:30:00 AM 42.0728 -87.2187 78° East  Level FlightAware Approximate
Tue 10:30:25 AM 42.1089 -87.5250 89° East 321 369 11,800  Level Chicago Center
Tue 10:31:00 AM 42.0881 -87.1214 77° East  Level FlightAware Approximate
Tue 10:31:28 AM 42.1103 -87.3961 89° East 340 391 13,500  Level Chicago Center
Tue 10:32:30 AM 42.1108 -87.2592 90° East 361 415 14,800 726 Climbing Chicago Center
Tue 10:33:32 AM 42.1119 -87.1139 89° East 383 441 15,000 97 Climbing Chicago Center
Tue 10:34:34 AM 42.1164 -86.9292 88° East 410 472 15,000  Level Chicago Center
Tue 10:35:36 AM 42.1228 -86.7803 87° East 404 465 15,000 -532 Level Chicago Center
Tue 10:36:38 AM 42.1269 -86.6456 88° East 400 460 13,900 -1,403 Descending Chicago Center
Tue 10:37:40 AM 42.1325 -86.5025 87° East 385 443 12,100 -1,403 Descending Chicago Center
Tue 10:38:42 AM 42.1381 -86.3397 87° East 365 420 11,000 -919 Descending Chicago Center
Tue 10:39:44 AM 42.1417 -86.2156 88° East 338 389 10,200 -1,258 Descending Chicago Center
Tue 10:40:46 AM 42.1461 -86.1033 87° East 309 356 8,400 -1,887 Descending Chicago Center
Tue 10:41:48 AM 42.1636 -85.9997 77° East 290 334 6,300 -1,984 Descending Chicago Center
Tue 10:42:50 AM 42.1389 -85.9025 109° East 283 326 4,300 -1,104 Descending Chicago Center
Tue 10:43:53 AM 42.1081 -85.8119 115° Southeast 271 312 4,000 -144 Descending Chicago Center
Tue 10:44:55 AM 42.0717 -85.7086 115° Southeast 257 296 4,000 -290 Level Chicago Center
Tue 10:45:57 AM 42.0397 -85.6222 116° Southeast 258 297 3,400 -581 Descending Chicago Center
Tue 10:46:59 AM 42.0272 -85.5364 101° East 251 289 2,800 -581 Descending Chicago Center

Login

Don't have an account? Register now (free) for customized features, flight alerts, and more!